sensor_id;sensor_type;location;lat;lon;timestamp;P1;durP1;ratioP1;P2;durP2;ratioP2
8714;SDS011;4394;51.208;8.904;2022-08-19T00:01:44;11.57;;;9.43;;
8714;SDS011;4394;51.208;8.904;2022-08-19T00:04:39;11.53;;;9.43;;
8714;SDS011;4394;51.208;8.904;2022-08-19T00:07:27;12.13;;;8.97;;
8714;SDS011;4394;51.208;8.904;2022-08-19T00:10:16;10.10;;;8.70;;
8714;SDS011;4394;51.208;8.904;2022-08-19T00:13:05;11.60;;;8.57;;
8714;SDS011;4394;51.208;8.904;2022-08-19T00:15:55;11.50;;;9.20;;
8714;SDS011;4394;51.208;8.904;2022-08-19T00:18:44;11.20;;;9.77;;
8714;SDS011;4394;51.208;8.904;2022-08-19T00:21:33;11.33;;;9.07;;
8714;SDS011;4394;51.208;8.904;2022-08-19T00:24:23;11.93;;;10.33;;
8714;SDS011;4394;51.208;8.904;2022-08-19T00:27:11;11.53;;;9.63;;
8714;SDS011;4394;51.208;8.904;2022-08-19T00:30:12;12.87;;;10.07;;
8714;SDS011;4394;51.208;8.904;2022-08-19T00:33:02;12.87;;;9.57;;
8714;SDS011;4394;51.208;8.904;2022-08-19T00:35:50;11.67;;;10.03;;
8714;SDS011;4394;51.208;8.904;2022-08-19T00:38:41;12.70;;;10.17;;
8714;SDS011;4394;51.208;8.904;2022-08-19T00:41:30;11.60;;;10.40;;
8714;SDS011;4394;51.208;8.904;2022-08-19T00:44:20;14.77;;;10.63;;
8714;SDS011;4394;51.208;8.904;2022-08-19T00:47:12;12.30;;;10.83;;
8714;SDS011;4394;51.208;8.904;2022-08-19T00:50:03;14.43;;;10.40;;
8714;SDS011;4394;51.208;8.904;2022-08-19T00:52:52;17.43;;;10.90;;
8714;SDS011;4394;51.208;8.904;2022-08-19T00:55:41;12.30;;;9.43;;
8714;SDS011;4394;51.208;8.904;2022-08-19T00:58:32;12.47;;;10.60;;
8714;SDS011;4394;51.208;8.904;2022-08-19T01:01:22;15.93;;;10.43;;
8714;SDS011;4394;51.208;8.904;2022-08-19T01:04:10;12.50;;;10.27;;
8714;SDS011;4394;51.208;8.904;2022-08-19T01:07:00;12.30;;;9.77;;
8714;SDS011;4394;51.208;8.904;2022-08-19T01:09:49;12.23;;;10.13;;
8714;SDS011;4394;51.208;8.904;2022-08-19T01:12:38;11.23;;;9.93;;
8714;SDS011;4394;51.208;8.904;2022-08-19T01:15:29;11.17;;;9.87;;
8714;SDS011;4394;51.208;8.904;2022-08-19T01:18:20;11.07;;;9.97;;
8714;SDS011;4394;51.208;8.904;2022-08-19T01:21:15;12.93;;;10.43;;
8714;SDS011;4394;51.208;8.904;2022-08-19T01:24:07;11.90;;;9.93;;
8714;SDS011;4394;51.208;8.904;2022-08-19T01:26:56;12.27;;;10.37;;
8714;SDS011;4394;51.208;8.904;2022-08-19T01:29:45;12.13;;;10.83;;
8714;SDS011;4394;51.208;8.904;2022-08-19T01:32:34;15.87;;;11.10;;
8714;SDS011;4394;51.208;8.904;2022-08-19T01:35:25;11.90;;;10.20;;
8714;SDS011;4394;51.208;8.904;2022-08-19T01:38:19;11.63;;;10.37;;
8714;SDS011;4394;51.208;8.904;2022-08-19T01:41:12;14.90;;;10.70;;
8714;SDS011;4394;51.208;8.904;2022-08-19T01:44:00;13.10;;;11.20;;
8714;SDS011;4394;51.208;8.904;2022-08-19T01:47:04;14.47;;;11.47;;
8714;SDS011;4394;51.208;8.904;2022-08-19T01:49:53;16.03;;;11.67;;
8714;SDS011;4394;51.208;8.904;2022-08-19T01:52:42;13.50;;;10.87;;
8714;SDS011;4394;51.208;8.904;2022-08-19T01:55:31;14.43;;;11.33;;
8714;SDS011;4394;51.208;8.904;2022-08-19T01:58:22;16.03;;;11.97;;
8714;SDS011;4394;51.208;8.904;2022-08-19T02:01:14;15.57;;;11.37;;
8714;SDS011;4394;51.208;8.904;2022-08-19T02:04:02;15.20;;;11.33;;
8714;SDS011;4394;51.208;8.904;2022-08-19T02:06:51;15.37;;;11.27;;
8714;SDS011;4394;51.208;8.904;2022-08-19T02:09:39;17.77;;;11.97;;
8714;SDS011;4394;51.208;8.904;2022-08-19T02:12:27;14.77;;;11.77;;
8714;SDS011;4394;51.208;8.904;2022-08-19T02:15:18;15.70;;;11.47;;
8714;SDS011;4394;51.208;8.904;2022-08-19T02:18:08;16.93;;;12.27;;
8714;SDS011;4394;51.208;8.904;2022-08-19T02:20:57;17.23;;;12.10;;
8714;SDS011;4394;51.208;8.904;2022-08-19T02:23:45;15.63;;;11.97;;
8714;SDS011;4394;51.208;8.904;2022-08-19T02:26:33;14.47;;;12.10;;
8714;SDS011;4394;51.208;8.904;2022-08-19T02:29:21;16.53;;;11.70;;
8714;SDS011;4394;51.208;8.904;2022-08-19T02:32:11;14.67;;;12.43;;
8714;SDS011;4394;51.208;8.904;2022-08-19T02:34:59;13.33;;;11.03;;
8714;SDS011;4394;51.208;8.904;2022-08-19T02:37:57;13.50;;;11.20;;
8714;SDS011;4394;51.208;8.904;2022-08-19T02:41:04;17.87;;;12.10;;
8714;SDS011;4394;51.208;8.904;2022-08-19T02:43:59;13.67;;;11.37;;
8714;SDS011;4394;51.208;8.904;2022-08-19T02:47:11;15.53;;;11.87;;
8714;SDS011;4394;51.208;8.904;2022-08-19T02:50:01;14.63;;;11.90;;
8714;SDS011;4394;51.208;8.904;2022-08-19T02:52:50;15.60;;;12.30;;
8714;SDS011;4394;51.208;8.904;2022-08-19T02:55:42;16.87;;;12.10;;
8714;SDS011;4394;51.208;8.904;2022-08-19T02:58:32;15.47;;;11.63;;
8714;SDS011;4394;51.208;8.904;2022-08-19T03:01:21;14.10;;;11.50;;
8714;SDS011;4394;51.208;8.904;2022-08-19T03:04:13;15.87;;;11.50;;
8714;SDS011;4394;51.208;8.904;2022-08-19T03:07:02;14.43;;;11.23;;
8714;SDS011;4394;51.208;8.904;2022-08-19T03:09:56;15.27;;;11.57;;
8714;SDS011;4394;51.208;8.904;2022-08-19T03:12:44;14.33;;;11.37;;
8714;SDS011;4394;51.208;8.904;2022-08-19T03:15:33;14.17;;;11.87;;
8714;SDS011;4394;51.208;8.904;2022-08-19T03:18:21;13.23;;;11.33;;
8714;SDS011;4394;51.208;8.904;2022-08-19T03:21:14;15.83;;;12.10;;
8714;SDS011;4394;51.208;8.904;2022-08-19T03:24:05;16.40;;;11.93;;
8714;SDS011;4394;51.208;8.904;2022-08-19T03:26:54;15.97;;;12.47;;
8714;SDS011;4394;51.208;8.904;2022-08-19T03:29:43;15.50;;;11.70;;
8714;SDS011;4394;51.208;8.904;2022-08-19T03:32:32;15.03;;;11.90;;
8714;SDS011;4394;51.208;8.904;2022-08-19T03:35:26;16.17;;;11.60;;
8714;SDS011;4394;51.208;8.904;2022-08-19T03:38:15;16.73;;;12.87;;
8714;SDS011;4394;51.208;8.904;2022-08-19T03:41:04;14.87;;;11.90;;
8714;SDS011;4394;51.208;8.904;2022-08-19T03:43:54;15.03;;;13.00;;
8714;SDS011;4394;51.208;8.904;2022-08-19T03:46:43;16.43;;;14.00;;
8714;SDS011;4394;51.208;8.904;2022-08-19T03:49:32;16.57;;;12.97;;
8714;SDS011;4394;51.208;8.904;2022-08-19T03:52:22;17.00;;;12.93;;
8714;SDS011;4394;51.208;8.904;2022-08-19T03:55:11;16.90;;;13.00;;
8714;SDS011;4394;51.208;8.904;2022-08-19T03:58:00;15.13;;;12.57;;
8714;SDS011;4394;51.208;8.904;2022-08-19T04:00:48;15.33;;;11.73;;
8714;SDS011;4394;51.208;8.904;2022-08-19T04:03:36;13.70;;;11.93;;
8714;SDS011;4394;51.208;8.904;2022-08-19T04:06:27;16.60;;;12.60;;
8714;SDS011;4394;51.208;8.904;2022-08-19T04:09:16;14.40;;;12.00;;
8714;SDS011;4394;51.208;8.904;2022-08-19T04:12:08;14.50;;;11.70;;
8714;SDS011;4394;51.208;8.904;2022-08-19T04:14:56;16.23;;;12.03;;
8714;SDS011;4394;51.208;8.904;2022-08-19T04:17:45;13.83;;;11.97;;
8714;SDS011;4394;51.208;8.904;2022-08-19T04:20:38;14.60;;;11.83;;
8714;SDS011;4394;51.208;8.904;2022-08-19T04:23:28;14.37;;;11.80;;
8714;SDS011;4394;51.208;8.904;2022-08-19T04:26:18;13.40;;;11.33;;
8714;SDS011;4394;51.208;8.904;2022-08-19T04:29:10;15.63;;;10.53;;
8714;SDS011;4394;51.208;8.904;2022-08-19T04:32:00;14.70;;;10.30;;
8714;SDS011;4394;51.208;8.904;2022-08-19T04:34:55;16.00;;;10.87;;
8714;SDS011;4394;51.208;8.904;2022-08-19T04:38:03;13.10;;;10.30;;
8714;SDS011;4394;51.208;8.904;2022-08-19T04:40:51;11.80;;;9.90;;
8714;SDS011;4394;51.208;8.904;2022-08-19T04:43:56;16.60;;;10.70;;
8714;SDS011;4394;51.208;8.904;2022-08-19T04:46:51;12.00;;;9.43;;
8714;SDS011;4394;51.208;8.904;2022-08-19T04:49:40;11.27;;;9.97;;
8714;SDS011;4394;51.208;8.904;2022-08-19T04:52:28;12.27;;;10.57;;
8714;SDS011;4394;51.208;8.904;2022-08-19T04:55:18;13.17;;;10.90;;
8714;SDS011;4394;51.208;8.904;2022-08-19T04:58:06;13.50;;;10.73;;
8714;SDS011;4394;51.208;8.904;2022-08-19T05:00:55;14.63;;;10.90;;
8714;SDS011;4394;51.208;8.904;2022-08-19T05:03:45;14.67;;;11.77;;
8714;SDS011;4394;51.208;8.904;2022-08-19T05:06:34;12.83;;;10.53;;
8714;SDS011;4394;51.208;8.904;2022-08-19T05:09:23;14.00;;;11.93;;
8714;SDS011;4394;51.208;8.904;2022-08-19T05:12:13;13.03;;;10.70;;
8714;SDS011;4394;51.208;8.904;2022-08-19T05:15:03;14.13;;;11.43;;
8714;SDS011;4394;51.208;8.904;2022-08-19T05:17:54;11.83;;;10.43;;
8714;SDS011;4394;51.208;8.904;2022-08-19T05:21:06;13.97;;;11.43;;
8714;SDS011;4394;51.208;8.904;2022-08-19T05:24:12;11.27;;;9.43;;
8714;SDS011;4394;51.208;8.904;2022-08-19T05:27:00;12.57;;;9.60;;
8714;SDS011;4394;51.208;8.904;2022-08-19T05:29:51;10.53;;;8.93;;
8714;SDS011;4394;51.208;8.904;2022-08-19T05:32:40;11.77;;;9.57;;
8714;SDS011;4394;51.208;8.904;2022-08-19T05:35:29;11.87;;;9.13;;
8714;SDS011;4394;51.208;8.904;2022-08-19T05:38:21;11.53;;;8.60;;
8714;SDS011;4394;51.208;8.904;2022-08-19T05:41:10;11.17;;;9.30;;
8714;SDS011;4394;51.208;8.904;2022-08-19T05:44:00;11.10;;;8.90;;
8714;SDS011;4394;51.208;8.904;2022-08-19T05:46:53;13.70;;;9.27;;
8714;SDS011;4394;51.208;8.904;2022-08-19T05:49:41;9.30;;;8.23;;
8714;SDS011;4394;51.208;8.904;2022-08-19T05:52:30;9.97;;;8.23;;
8714;SDS011;4394;51.208;8.904;2022-08-19T05:55:20;9.47;;;8.03;;
8714;SDS011;4394;51.208;8.904;2022-08-19T05:58:09;10.47;;;8.13;;
8714;SDS011;4394;51.208;8.904;2022-08-19T06:00:57;10.33;;;8.37;;
8714;SDS011;4394;51.208;8.904;2022-08-19T06:03:50;8.77;;;7.43;;
8714;SDS011;4394;51.208;8.904;2022-08-19T06:06:39;10.33;;;7.63;;
8714;SDS011;4394;51.208;8.904;2022-08-19T06:09:27;9.00;;;7.80;;
8714;SDS011;4394;51.208;8.904;2022-08-19T06:12:18;9.27;;;7.57;;
8714;SDS011;4394;51.208;8.904;2022-08-19T06:15:07;10.47;;;7.67;;
8714;SDS011;4394;51.208;8.904;2022-08-19T06:17:57;8.00;;;7.20;;
8714;SDS011;4394;51.208;8.904;2022-08-19T06:20:47;9.23;;;6.93;;
8714;SDS011;4394;51.208;8.904;2022-08-19T06:23:41;7.80;;;6.93;;
8714;SDS011;4394;51.208;8.904;2022-08-19T06:26:30;9.67;;;7.53;;
8714;SDS011;4394;51.208;8.904;2022-08-19T06:29:20;8.77;;;7.10;;
8714;SDS011;4394;51.208;8.904;2022-08-19T06:32:10;8.73;;;6.83;;
8714;SDS011;4394;51.208;8.904;2022-08-19T06:34:58;7.40;;;6.50;;
8714;SDS011;4394;51.208;8.904;2022-08-19T06:37:46;8.93;;;6.50;;
8714;SDS011;4394;51.208;8.904;2022-08-19T06:40:35;7.20;;;6.00;;
8714;SDS011;4394;51.208;8.904;2022-08-19T06:43:24;8.07;;;6.43;;
8714;SDS011;4394;51.208;8.904;2022-08-19T06:46:16;7.07;;;6.10;;
8714;SDS011;4394;51.208;8.904;2022-08-19T06:49:06;8.67;;;5.63;;
8714;SDS011;4394;51.208;8.904;2022-08-19T06:51:56;6.87;;;6.00;;
8714;SDS011;4394;51.208;8.904;2022-08-19T06:54:47;6.13;;;5.53;;
8714;SDS011;4394;51.208;8.904;2022-08-19T06:57:41;8.27;;;6.00;;
8714;SDS011;4394;51.208;8.904;2022-08-19T07:00:32;6.70;;;5.27;;
8714;SDS011;4394;51.208;8.904;2022-08-19T07:03:22;6.80;;;5.63;;
8714;SDS011;4394;51.208;8.904;2022-08-19T07:06:12;6.43;;;5.77;;
8714;SDS011;4394;51.208;8.904;2022-08-19T07:09:23;6.20;;;5.33;;
8714;SDS011;4394;51.208;8.904;2022-08-19T07:12:12;6.60;;;4.90;;
8714;SDS011;4394;51.208;8.904;2022-08-19T07:15:02;7.13;;;4.77;;
8714;SDS011;4394;51.208;8.904;2022-08-19T07:17:51;5.27;;;4.70;;
8714;SDS011;4394;51.208;8.904;2022-08-19T07:20:42;6.90;;;5.20;;
8714;SDS011;4394;51.208;8.904;2022-08-19T07:23:30;6.73;;;4.47;;
8714;SDS011;4394;51.208;8.904;2022-08-19T07:26:19;6.37;;;5.13;;
8714;SDS011;4394;51.208;8.904;2022-08-19T07:29:13;5.50;;;5.00;;
8714;SDS011;4394;51.208;8.904;2022-08-19T07:32:04;5.50;;;5.00;;
8714;SDS011;4394;51.208;8.904;2022-08-19T07:34:58;5.60;;;5.07;;
8714;SDS011;4394;51.208;8.904;2022-08-19T07:37:50;6.90;;;4.17;;
8714;SDS011;4394;51.208;8.904;2022-08-19T07:40:39;5.63;;;4.30;;
8714;SDS011;4394;51.208;8.904;2022-08-19T07:43:27;4.17;;;3.80;;
8714;SDS011;4394;51.208;8.904;2022-08-19T07:46:20;4.30;;;3.90;;
8714;SDS011;4394;51.208;8.904;2022-08-19T07:49:09;3.90;;;3.50;;
8714;SDS011;4394;51.208;8.904;2022-08-19T07:52:06;4.30;;;3.90;;
8714;SDS011;4394;51.208;8.904;2022-08-19T07:54:56;5.23;;;4.63;;
8714;SDS011;4394;51.208;8.904;2022-08-19T07:57:46;5.03;;;3.90;;
8714;SDS011;4394;51.208;8.904;2022-08-19T08:00:34;4.77;;;4.00;;
8714;SDS011;4394;51.208;8.904;2022-08-19T08:03:22;5.13;;;4.00;;
8714;SDS011;4394;51.208;8.904;2022-08-19T08:06:31;4.20;;;3.47;;
8714;SDS011;4394;51.208;8.904;2022-08-19T08:09:38;4.90;;;4.40;;
8714;SDS011;4394;51.208;8.904;2022-08-19T08:12:30;4.90;;;3.90;;
8714;SDS011;4394;51.208;8.904;2022-08-19T08:15:20;4.37;;;3.90;;
8714;SDS011;4394;51.208;8.904;2022-08-19T08:18:10;4.40;;;4.00;;
8714;SDS011;4394;51.208;8.904;2022-08-19T08:20:59;5.43;;;3.90;;
8714;SDS011;4394;51.208;8.904;2022-08-19T08:23:48;4.40;;;4.00;;
8714;SDS011;4394;51.208;8.904;2022-08-19T08:26:41;4.73;;;4.23;;
8714;SDS011;4394;51.208;8.904;2022-08-19T08:29:38;4.67;;;4.27;;
8714;SDS011;4394;51.208;8.904;2022-08-19T08:32:27;5.50;;;5.00;;
8714;SDS011;4394;51.208;8.904;2022-08-19T08:35:18;5.17;;;4.53;;
8714;SDS011;4394;51.208;8.904;2022-08-19T08:38:08;5.90;;;5.20;;
8714;SDS011;4394;51.208;8.904;2022-08-19T08:40:57;5.87;;;5.37;;
8714;SDS011;4394;51.208;8.904;2022-08-19T08:43:54;6.73;;;5.00;;
8714;SDS011;4394;51.208;8.904;2022-08-19T08:46:46;5.00;;;4.50;;
8714;SDS011;4394;51.208;8.904;2022-08-19T08:49:40;5.83;;;4.87;;
8714;SDS011;4394;51.208;8.904;2022-08-19T08:52:37;6.63;;;4.70;;
8714;SDS011;4394;51.208;8.904;2022-08-19T08:55:31;6.10;;;5.57;;
8714;SDS011;4394;51.208;8.904;2022-08-19T08:58:24;5.43;;;4.90;;
8714;SDS011;4394;51.208;8.904;2022-08-19T09:01:17;5.60;;;4.80;;
8714;SDS011;4394;51.208;8.904;2022-08-19T09:04:07;7.47;;;5.07;;
8714;SDS011;4394;51.208;8.904;2022-08-19T09:07:02;5.47;;;4.97;;
8714;SDS011;4394;51.208;8.904;2022-08-19T09:10:22;5.57;;;4.80;;
8714;SDS011;4394;51.208;8.904;2022-08-19T09:16:42;6.10;;;5.43;;
8714;SDS011;4394;51.208;8.904;2022-08-19T09:19:35;6.03;;;5.33;;
8714;SDS011;4394;51.208;8.904;2022-08-19T09:22:34;5.77;;;4.70;;
8714;SDS011;4394;51.208;8.904;2022-08-19T09:25:23;4.83;;;4.43;;
8714;SDS011;4394;51.208;8.904;2022-08-19T09:28:15;5.37;;;4.40;;
8714;SDS011;4394;51.208;8.904;2022-08-19T09:31:12;5.17;;;4.30;;
8714;SDS011;4394;51.208;8.904;2022-08-19T09:34:01;6.93;;;4.53;;
8714;SDS011;4394;51.208;8.904;2022-08-19T09:36:52;4.80;;;4.30;;
8714;SDS011;4394;51.208;8.904;2022-08-19T09:39:44;4.63;;;3.93;;
8714;SDS011;4394;51.208;8.904;2022-08-19T09:42:32;5.07;;;3.93;;
8714;SDS011;4394;51.208;8.904;2022-08-19T09:45:21;5.40;;;4.60;;
8714;SDS011;4394;51.208;8.904;2022-08-19T09:48:11;4.57;;;4.13;;
8714;SDS011;4394;51.208;8.904;2022-08-19T09:51:09;5.17;;;4.47;;
8714;SDS011;4394;51.208;8.904;2022-08-19T09:54:03;4.60;;;4.20;;
8714;SDS011;4394;51.208;8.904;2022-08-19T09:56:58;4.30;;;3.73;;
8714;SDS011;4394;51.208;8.904;2022-08-19T09:59:53;4.33;;;3.83;;
8714;SDS011;4394;51.208;8.904;2022-08-19T10:02:41;4.60;;;3.93;;
8714;SDS011;4394;51.208;8.904;2022-08-19T10:05:31;4.50;;;4.10;;
8714;SDS011;4394;51.208;8.904;2022-08-19T10:08:40;5.00;;;3.60;;
8714;SDS011;4394;51.208;8.904;2022-08-19T10:11:38;4.20;;;3.80;;
8714;SDS011;4394;51.208;8.904;2022-08-19T10:14:39;4.63;;;4.23;;
8714;SDS011;4394;51.208;8.904;2022-08-19T10:17:27;4.77;;;4.27;;
8714;SDS011;4394;51.208;8.904;2022-08-19T10:20:18;6.20;;;4.73;;
8714;SDS011;4394;51.208;8.904;2022-08-19T10:23:08;4.37;;;3.97;;
8714;SDS011;4394;51.208;8.904;2022-08-19T10:25:59;5.03;;;4.30;;
8714;SDS011;4394;51.208;8.904;2022-08-19T10:28:49;4.80;;;4.30;;
8714;SDS011;4394;51.208;8.904;2022-08-19T10:31:40;5.70;;;4.90;;
8714;SDS011;4394;51.208;8.904;2022-08-19T10:34:47;4.43;;;3.63;;
8714;SDS011;4394;51.208;8.904;2022-08-19T10:37:42;4.00;;;3.70;;
8714;SDS011;4394;51.208;8.904;2022-08-19T10:40:45;4.33;;;3.77;;
8714;SDS011;4394;51.208;8.904;2022-08-19T10:43:33;4.53;;;3.90;;
8714;SDS011;4394;51.208;8.904;2022-08-19T10:46:26;5.93;;;4.80;;
8714;SDS011;4394;51.208;8.904;2022-08-19T10:49:18;5.77;;;4.70;;
8714;SDS011;4394;51.208;8.904;2022-08-19T10:52:07;4.37;;;3.97;;
8714;SDS011;4394;51.208;8.904;2022-08-19T10:55:19;5.10;;;4.27;;
8714;SDS011;4394;51.208;8.904;2022-08-19T10:58:26;5.40;;;4.00;;
8714;SDS011;4394;51.208;8.904;2022-08-19T11:01:14;4.57;;;4.13;;
8714;SDS011;4394;51.208;8.904;2022-08-19T11:04:05;4.43;;;4.03;;
8714;SDS011;4394;51.208;8.904;2022-08-19T11:06:59;4.87;;;4.23;;
8714;SDS011;4394;51.208;8.904;2022-08-19T11:09:48;4.70;;;4.30;;
8714;SDS011;4394;51.208;8.904;2022-08-19T11:12:37;4.80;;;3.97;;
8714;SDS011;4394;51.208;8.904;2022-08-19T11:15:26;5.40;;;3.87;;
8714;SDS011;4394;51.208;8.904;2022-08-19T11:18:16;4.57;;;4.17;;
8714;SDS011;4394;51.208;8.904;2022-08-19T11:21:06;4.27;;;3.97;;
8714;SDS011;4394;51.208;8.904;2022-08-19T11:23:59;4.83;;;4.37;;
8714;SDS011;4394;51.208;8.904;2022-08-19T11:26:50;4.70;;;4.30;;
8714;SDS011;4394;51.208;8.904;2022-08-19T11:29:44;5.43;;;4.80;;
8714;SDS011;4394;51.208;8.904;2022-08-19T11:32:32;5.27;;;4.77;;
8714;SDS011;4394;51.208;8.904;2022-08-19T11:35:22;5.00;;;4.60;;
8714;SDS011;4394;51.208;8.904;2022-08-19T11:38:12;5.20;;;4.70;;
8714;SDS011;4394;51.208;8.904;2022-08-19T11:41:01;8.60;;;5.47;;
8714;SDS011;4394;51.208;8.904;2022-08-19T11:43:51;6.20;;;5.43;;
8714;SDS011;4394;51.208;8.904;2022-08-19T11:46:42;5.90;;;5.40;;
8714;SDS011;4394;51.208;8.904;2022-08-19T11:49:32;5.97;;;5.47;;
8714;SDS011;4394;51.208;8.904;2022-08-19T11:52:22;6.00;;;5.50;;
8714;SDS011;4394;51.208;8.904;2022-08-19T11:55:13;5.63;;;5.13;;
8714;SDS011;4394;51.208;8.904;2022-08-19T11:58:01;6.00;;;5.40;;
8714;SDS011;4394;51.208;8.904;2022-08-19T12:01:05;6.27;;;5.50;;
8714;SDS011;4394;51.208;8.904;2022-08-19T12:03:55;6.37;;;5.77;;
8714;SDS011;4394;51.208;8.904;2022-08-19T12:06:45;5.80;;;5.30;;
8714;SDS011;4394;51.208;8.904;2022-08-19T12:09:33;5.90;;;5.03;;
8714;SDS011;4394;51.208;8.904;2022-08-19T12:12:28;4.67;;;4.27;;
8714;SDS011;4394;51.208;8.904;2022-08-19T12:15:17;5.27;;;4.77;;
8714;SDS011;4394;51.208;8.904;2022-08-19T12:18:05;5.40;;;4.90;;
8714;SDS011;4394;51.208;8.904;2022-08-19T12:20:54;4.73;;;4.43;;
8714;SDS011;4394;51.208;8.904;2022-08-19T12:23:42;4.90;;;4.50;;
8714;SDS011;4394;51.208;8.904;2022-08-19T12:26:31;6.17;;;5.30;;
8714;SDS011;4394;51.208;8.904;2022-08-19T12:29:39;5.97;;;4.50;;
8714;SDS011;4394;51.208;8.904;2022-08-19T12:32:28;5.83;;;4.70;;
8714;SDS011;4394;51.208;8.904;2022-08-19T12:35:17;5.90;;;4.70;;
8714;SDS011;4394;51.208;8.904;2022-08-19T12:38:07;5.03;;;4.73;;
8714;SDS011;4394;51.208;8.904;2022-08-19T12:40:55;5.23;;;4.83;;
8714;SDS011;4394;51.208;8.904;2022-08-19T12:43:45;5.80;;;5.40;;
8714;SDS011;4394;51.208;8.904;2022-08-19T12:46:37;5.38;;;4.97;;
8714;SDS011;4394;51.208;8.904;2022-08-19T12:49:27;5.50;;;5.10;;
8714;SDS011;4394;51.208;8.904;2022-08-19T12:52:35;6.83;;;6.33;;
8714;SDS011;4394;51.208;8.904;2022-08-19T12:55:24;6.25;;;5.60;;
8714;SDS011;4394;51.208;8.904;2022-08-19T12:58:14;5.90;;;5.45;;
8714;SDS011;4394;51.208;8.904;2022-08-19T13:01:07;6.03;;;5.45;;
8714;SDS011;4394;51.208;8.904;2022-08-19T13:03:59;5.80;;;5.32;;
8714;SDS011;4394;51.208;8.904;2022-08-19T13:06:47;6.55;;;5.90;;
8714;SDS011;4394;51.208;8.904;2022-08-19T13:09:35;6.70;;;6.20;;
8714;SDS011;4394;51.208;8.904;2022-08-19T13:12:24;6.50;;;6.00;;
8714;SDS011;4394;51.208;8.904;2022-08-19T13:15:13;6.43;;;5.82;;
8714;SDS011;4394;51.208;8.904;2022-08-19T13:18:09;6.63;;;6.07;;
8714;SDS011;4394;51.208;8.904;2022-08-19T13:21:02;7.20;;;6.60;;
8714;SDS011;4394;51.208;8.904;2022-08-19T13:23:51;7.85;;;7.18;;
8714;SDS011;4394;51.208;8.904;2022-08-19T13:26:40;6.93;;;6.32;;
8714;SDS011;4394;51.208;8.904;2022-08-19T13:29:28;6.50;;;6.00;;
8714;SDS011;4394;51.208;8.904;2022-08-19T13:32:34;6.70;;;6.20;;
8714;SDS011;4394;51.208;8.904;2022-08-19T13:35:40;6.97;;;6.38;;
8714;SDS011;4394;51.208;8.904;2022-08-19T13:38:33;7.00;;;6.40;;
8714;SDS011;4394;51.208;8.904;2022-08-19T13:41:22;6.53;;;6.00;;
8714;SDS011;4394;51.208;8.904;2022-08-19T13:44:10;7.35;;;6.80;;
8714;SDS011;4394;51.208;8.904;2022-08-19T13:47:02;7.68;;;7.07;;
8714;SDS011;4394;51.208;8.904;2022-08-19T13:49:53;7.40;;;6.80;;
8714;SDS011;4394;51.208;8.904;2022-08-19T13:52:41;7.32;;;6.72;;
8714;SDS011;4394;51.208;8.904;2022-08-19T13:55:31;6.90;;;6.40;;
8714;SDS011;4394;51.208;8.904;2022-08-19T13:58:19;6.97;;;6.28;;
8714;SDS011;4394;51.208;8.904;2022-08-19T14:01:08;5.85;;;5.40;;
8714;SDS011;4394;51.208;8.904;2022-08-19T14:03:58;5.60;;;5.10;;
8714;SDS011;4394;51.208;8.904;2022-08-19T14:06:47;6.15;;;5.70;;
8714;SDS011;4394;51.208;8.904;2022-08-19T14:09:39;6.10;;;5.53;;
8714;SDS011;4394;51.208;8.904;2022-08-19T14:12:33;6.20;;;5.80;;
8714;SDS011;4394;51.208;8.904;2022-08-19T14:15:22;6.53;;;5.80;;
8714;SDS011;4394;51.208;8.904;2022-08-19T14:18:11;6.40;;;5.80;;
8714;SDS011;4394;51.208;8.904;2022-08-19T14:20:59;6.72;;;6.18;;
8714;SDS011;4394;51.208;8.904;2022-08-19T14:23:49;6.75;;;6.10;;
8714;SDS011;4394;51.208;8.904;2022-08-19T14:26:37;5.72;;;5.32;;
8714;SDS011;4394;51.208;8.904;2022-08-19T14:29:27;6.38;;;5.88;;
8714;SDS011;4394;51.208;8.904;2022-08-19T14:32:15;6.45;;;5.85;;
8714;SDS011;4394;51.208;8.904;2022-08-19T14:35:05;6.45;;;5.85;;
8714;SDS011;4394;51.208;8.904;2022-08-19T14:37:54;5.75;;;5.18;;
8714;SDS011;4394;51.208;8.904;2022-08-19T14:40:44;5.05;;;4.70;;
8714;SDS011;4394;51.208;8.904;2022-08-19T14:43:33;4.88;;;4.57;;
8714;SDS011;4394;51.208;8.904;2022-08-19T14:46:24;4.82;;;4.43;;
8714;SDS011;4394;51.208;8.904;2022-08-19T14:49:15;5.20;;;4.80;;
8714;SDS011;4394;51.208;8.904;2022-08-19T14:52:04;4.90;;;4.38;;
8714;SDS011;4394;51.208;8.904;2022-08-19T14:54:53;4.53;;;4.22;;
8714;SDS011;4394;51.208;8.904;2022-08-19T14:57:45;5.18;;;4.68;;
8714;SDS011;4394;51.208;8.904;2022-08-19T15:00:34;4.90;;;4.55;;
8714;SDS011;4394;51.208;8.904;2022-08-19T15:03:23;4.78;;;4.38;;
8714;SDS011;4394;51.208;8.904;2022-08-19T15:06:12;5.13;;;4.72;;
8714;SDS011;4394;51.208;8.904;2022-08-19T15:09:05;4.95;;;4.55;;
8714;SDS011;4394;51.208;8.904;2022-08-19T15:12:04;4.90;;;4.50;;
8714;SDS011;4394;51.208;8.904;2022-08-19T15:15:08;4.63;;;4.22;;
8714;SDS011;4394;51.208;8.904;2022-08-19T15:18:03;5.07;;;4.15;;
8714;SDS011;4394;51.208;8.904;2022-08-19T15:20:54;4.13;;;3.83;;
8714;SDS011;4394;51.208;8.904;2022-08-19T15:23:47;4.55;;;4.25;;
8714;SDS011;4394;51.208;8.904;2022-08-19T15:26:40;4.50;;;4.20;;
8714;SDS011;4394;51.208;8.904;2022-08-19T15:29:29;4.13;;;3.83;;
8714;SDS011;4394;51.208;8.904;2022-08-19T15:32:24;5.13;;;4.10;;
8714;SDS011;4394;51.208;8.904;2022-08-19T15:35:19;4.50;;;4.10;;
8714;SDS011;4394;51.208;8.904;2022-08-19T15:38:12;4.70;;;4.28;;
8714;SDS011;4394;51.208;8.904;2022-08-19T15:41:03;4.30;;;4.00;;
8714;SDS011;4394;51.208;8.904;2022-08-19T15:44:13;4.88;;;4.05;;
8714;SDS011;4394;51.208;8.904;2022-08-19T15:47:15;5.28;;;4.20;;
8714;SDS011;4394;51.208;8.904;2022-08-19T15:50:11;5.43;;;4.93;;
8714;SDS011;4394;51.208;8.904;2022-08-19T15:53:04;5.53;;;4.75;;
8714;SDS011;4394;51.208;8.904;2022-08-19T15:56:02;5.68;;;5.18;;
8714;SDS011;4394;51.208;8.904;2022-08-19T15:58:59;5.35;;;4.85;;
8714;SDS011;4394;51.208;8.904;2022-08-19T16:02:13;5.45;;;4.97;;
8714;SDS011;4394;51.208;8.904;2022-08-19T16:05:21;5.95;;;5.45;;
8714;SDS011;4394;51.208;8.904;2022-08-19T16:08:28;5.03;;;4.63;;
8714;SDS011;4394;51.208;8.904;2022-08-19T16:11:40;5.68;;;5.05;;
8714;SDS011;4394;51.208;8.904;2022-08-19T16:14:33;5.10;;;4.60;;
8714;SDS011;4394;51.208;8.904;2022-08-19T16:17:32;5.13;;;4.72;;
8714;SDS011;4394;51.208;8.904;2022-08-19T16:20:25;4.82;;;4.43;;
8714;SDS011;4394;51.208;8.904;2022-08-19T16:26:30;5.25;;;4.85;;
8714;SDS011;4394;51.208;8.904;2022-08-19T16:29:40;4.95;;;4.55;;
8714;SDS011;4394;51.208;8.904;2022-08-19T16:32:34;5.50;;;5.00;;
8714;SDS011;4394;51.208;8.904;2022-08-19T16:35:23;5.00;;;4.40;;
8714;SDS011;4394;51.208;8.904;2022-08-19T16:38:12;4.95;;;4.55;;
8714;SDS011;4394;51.208;8.904;2022-08-19T16:41:19;5.40;;;5.00;;
8714;SDS011;4394;51.208;8.904;2022-08-19T16:44:13;5.13;;;4.68;;
8714;SDS011;4394;51.208;8.904;2022-08-19T16:47:06;4.85;;;4.45;;
8714;SDS011;4394;51.208;8.904;2022-08-19T16:49:59;6.53;;;5.00;;
8714;SDS011;4394;51.208;8.904;2022-08-19T16:52:53;6.80;;;4.35;;
8714;SDS011;4394;51.208;8.904;2022-08-19T16:55:48;5.40;;;5.00;;
8714;SDS011;4394;51.208;8.904;2022-08-19T16:58:44;5.35;;;4.93;;
8714;SDS011;4394;51.208;8.904;2022-08-19T17:01:36;5.05;;;4.65;;
8714;SDS011;4394;51.208;8.904;2022-08-19T17:04:35;5.30;;;4.72;;
8714;SDS011;4394;51.208;8.904;2022-08-19T17:07:25;5.28;;;4.10;;
8714;SDS011;4394;51.208;8.904;2022-08-19T17:10:19;4.78;;;4.30;;
8714;SDS011;4394;51.208;8.904;2022-08-19T17:13:10;4.97;;;4.60;;
8714;SDS011;4394;51.208;8.904;2022-08-19T17:16:01;5.57;;;5.07;;
8714;SDS011;4394;51.208;8.904;2022-08-19T17:18:55;5.60;;;5.05;;
8714;SDS011;4394;51.208;8.904;2022-08-19T17:21:51;5.50;;;5.00;;
8714;SDS011;4394;51.208;8.904;2022-08-19T17:24:54;5.45;;;4.95;;
8714;SDS011;4394;51.208;8.904;2022-08-19T17:27:46;5.47;;;4.97;;
8714;SDS011;4394;51.208;8.904;2022-08-19T17:30:40;5.65;;;5.15;;
8714;SDS011;4394;51.208;8.904;2022-08-19T17:33:34;5.03;;;4.63;;
8714;SDS011;4394;51.208;8.904;2022-08-19T17:36:28;5.97;;;5.47;;
8714;SDS011;4394;51.208;8.904;2022-08-19T17:39:24;5.63;;;5.13;;
8714;SDS011;4394;51.208;8.904;2022-08-19T17:42:14;5.35;;;4.95;;
8714;SDS011;4394;51.208;8.904;2022-08-19T17:45:14;5.80;;;5.30;;
8714;SDS011;4394;51.208;8.904;2022-08-19T17:48:09;5.28;;;4.75;;